Time;durP1;ratioP1;P1;durP2;ratioP2;P2;SDS_P1;SDS_P2;PMS_P1;PMS_P2;Temp;Humidity;BMP_temperature;BMP_pressure;BME280_temperature;BME280_humidity;BME280_pressure;Samples;Min_cycle;Max_cycle;Signal;HPM_P1;HPM_P2
2022/04/06 00:01:20;;;;;;;8.80;6.90;;;;;;;6.07;80.51;97267.55;105932;1277;22544;-70
2022/04/06 00:04:02;;;;;;;8.80;7.00;;;;;;;6.06;80.52;97259.73;105766;1277;137288;-70
2022/04/06 00:06:44;;;;;;;8.90;6.90;;;;;;;6.06;80.52;97259.90;105838;1278;22645;-69
2022/04/06 00:09:25;;;;;;;9.90;7.30;;;;;;;6.07;80.51;97262.77;105648;1278;138217;-69
2022/04/06 00:12:07;;;;;;;7.90;6.50;;;;;;;6.09;80.40;97266.90;105930;1277;22737;-68
2022/04/06 00:14:36;;;;;;;9.90;7.20;;;;;;;6.10;80.45;97269.80;106010;1276;137595;-69
2022/04/06 00:17:17;;;;;;;8.60;7.10;;;;;;;6.11;80.44;97271.65;106074;1277;22557;-68
2022/04/06 00:19:44;;;;;;;12.20;7.40;;;;;;;6.12;80.65;97273.63;105899;1276;137531;-69
2022/04/06 00:22:26;;;;;;;10.70;7.90;;;;;;;6.13;80.49;97267.96;105916;1277;22630;-69
2022/04/06 00:24:53;;;;;;;7.20;6.40;;;;;;;6.15;80.49;97262.30;105940;1277;24228;-68
2022/04/06 00:27:34;;;;;;;11.20;7.40;;;;;;;6.16;80.40;97257.84;105806;1277;137213;-68
2022/04/06 00:30:05;;;;;;;8.10;6.90;;;;;;;6.17;80.41;97253.16;105981;1278;23206;-69
2022/04/06 00:32:33;;;;;;;9.70;7.80;;;;;;;6.18;80.42;97251.43;105842;1277;137554;-69
2022/04/06 00:38:03;;;;;;;9.30;6.60;;;;;;;6.20;80.37;97261.74;105664;1277;138109;-70
2022/04/06 00:40:33;;;;;;;9.60;6.90;;;;;;;6.20;80.15;97258.39;105947;1277;25319;-69
2022/04/06 00:43:05;;;;;;;10.50;7.50;;;;;;;6.20;80.33;97255.84;105962;1277;22612;-70
2022/04/06 00:45:32;;;;;;;10.30;7.50;;;;;;;6.18;80.30;97254.09;106008;1277;137734;-69
2022/04/06 00:48:13;;;;;;;9.00;7.00;;;;;;;6.17;80.33;97254.61;106202;1277;24376;-69
2022/04/06 00:50:54;;;;;;;8.40;5.90;;;;;;;6.17;80.36;97255.80;105977;1277;137895;-69
2022/04/06 00:53:36;;;;;;;9.00;6.80;;;;;;;6.17;80.16;97257.78;106253;1277;29511;-69
2022/04/06 00:56:07;;;;;;;6.80;6.10;;;;;;;6.15;80.29;97256.20;105797;1277;137977;-69
2022/04/06 00:58:33;;;;;;;8.50;6.50;;;;;;;6.12;80.16;97250.16;105985;1277;24360;-69
2022/04/06 01:01:14;;;;;;;8.50;6.60;;;;;;;6.09;80.22;97244.91;105927;1278;25321;-69
2022/04/06 01:03:41;;;;;;;7.60;6.40;;;;;;;6.09;80.33;97247.08;105877;1277;137716;-69
2022/04/06 01:06:23;;;;;;;7.80;6.00;;;;;;;6.08;80.65;97248.42;105887;1277;24536;-69
2022/04/06 01:08:54;;;;;;;7.60;6.40;;;;;;;6.08;80.55;97245.39;105878;1277;137919;-69
2022/04/06 01:11:35;;;;;;;7.10;5.70;;;;;;;6.08;80.71;97241.55;105877;1277;24310;-69
2022/04/06 01:14:18;;;;;;;8.80;7.10;;;;;;;6.10;80.89;97244.98;105738;1277;138481;-69
2022/04/06 01:17:04;;;;;;;7.30;5.60;;;;;;;6.12;80.77;97243.11;105806;1277;24502;-69
2022/04/06 01:19:37;;;;;;;8.70;6.90;;;;;;;6.13;80.70;97245.68;105876;1278;22549;-69
2022/04/06 01:22:19;;;;;;;7.90;6.10;;;;;;;6.14;80.69;97242.92;106004;1277;138276;-69
2022/04/06 01:25:01;;;;;;;9.00;5.60;;;;;;;6.14;80.71;97235.73;106033;1277;22535;-69
2022/04/06 01:27:42;;;;;;;7.90;6.10;;;;;;;6.15;80.62;97244.02;105693;1277;138024;-70
2022/04/06 01:30:23;;;;;;;5.40;4.90;;;;;;;6.17;80.70;97246.73;105943;1277;22563;-69
2022/04/06 01:33:05;;;;;;;5.40;4.80;;;;;;;6.19;80.60;97248.41;105950;1277;139367;-69
2022/04/06 01:35:47;;;;;;;7.40;5.40;;;;;;;6.21;80.56;97245.36;105849;1278;22847;-69
2022/04/06 01:38:29;;;;;;;7.90;5.70;;;;;;;6.22;80.46;97239.23;105952;1277;137673;-69
2022/04/06 01:40:56;;;;;;;7.20;5.10;;;;;;;6.24;80.55;97238.83;105994;1277;26484;-71
2022/04/06 01:43:24;;;;;;;6.00;4.70;;;;;;;6.26;80.37;97236.37;106299;1277;23954;-71
2022/04/06 01:46:05;;;;;;;5.90;4.30;;;;;;;6.29;80.26;97236.14;105779;1277;137535;-72
2022/04/06 01:54:17;;;;;;;7.90;5.00;;;;;;;6.35;80.10;97247.21;105991;1277;22537;-72
2022/04/06 01:56:58;;;;;;;5.10;4.30;;;;;;;6.38;80.16;97249.67;105834;1277;138370;-73
2022/04/06 01:59:39;;;;;;;4.10;3.70;;;;;;;6.41;80.16;97242.36;105754;1277;23913;-69
2022/04/06 02:02:23;;;;;;;5.70;4.10;;;;;;;6.44;80.20;97242.16;105793;1277;137492;-69
2022/04/06 02:04:49;;;;;;;4.30;3.90;;;;;;;6.46;79.89;97244.35;105982;1277;26005;-71
2022/04/06 02:07:17;;;;;;;5.40;4.30;;;;;;;6.49;80.05;97249.14;105749;1278;25378;-70
2022/04/06 02:10:00;;;;;;;4.80;4.20;;;;;;;6.50;80.19;97251.91;105680;1277;137628;-69
2022/04/06 02:12:28;;;;;;;5.40;4.80;;;;;;;6.51;79.93;97252.73;106035;1277;22938;-69
2022/04/06 02:15:12;;;;;;;4.80;3.90;;;;;;;6.54;80.16;97248.67;105729;1277;138160;-68
2022/04/06 02:17:40;;;;;;;6.90;4.50;;;;;;;6.57;79.98;97248.00;105933;1278;22553;-69
2022/04/06 02:20:21;;;;;;;5.60;4.10;;;;;;;6.59;79.97;97242.04;105991;1277;137433;-68
2022/04/06 02:23:02;;;;;;;5.00;4.30;;;;;;;6.60;80.00;97238.41;105939;1277;25242;-69
2022/04/06 02:25:29;;;;;;;4.90;4.20;;;;;;;6.62;79.95;97237.92;105950;1277;29619;-68
2022/04/06 02:27:56;;;;;;;4.30;3.90;;;;;;;6.67;79.77;97234.94;105873;1277;137924;-69
2022/04/06 02:30:39;;;;;;;4.30;3.90;;;;;;;6.69;79.81;97229.02;105936;1277;25305;-69
2022/04/06 02:33:20;;;;;;;4.00;3.60;;;;;;;6.73;79.85;97237.99;105926;1277;137254;-69
2022/04/06 02:36:03;;;;;;;4.90;3.90;;;;;;;6.75;80.03;97243.81;105910;1277;30756;-69
2022/04/06 02:38:38;;;;;;;4.70;4.20;;;;;;;6.76;79.90;97244.70;105650;1277;138118;-69
2022/04/06 02:41:06;;;;;;;5.60;4.40;;;;;;;6.78;79.72;97245.11;105970;1277;24266;-69
2022/04/06 02:43:47;;;;;;;5.30;4.00;;;;;;;6.82;79.84;97247.42;105831;1277;22642;-69
2022/04/06 02:46:28;;;;;;;4.40;4.00;;;;;;;6.85;79.45;97250.82;105727;1277;137168;-69
2022/04/06 02:48:55;;;;;;;5.50;4.40;;;;;;;6.87;79.51;97254.25;105890;1277;25409;-69
2022/04/06 02:51:23;;;;;;;4.70;4.00;;;;;;;6.88;79.58;97251.72;105868;1277;137444;-69
2022/04/06 02:53:50;;;;;;;6.20;4.30;;;;;;;6.89;79.60;97258.06;105863;1277;22554;-69
2022/04/06 02:56:17;;;;;;;4.80;4.30;;;;;;;6.89;79.60;97259.64;105701;1278;139259;-69
2022/04/06 02:59:00;;;;;;;5.10;4.20;;;;;;;6.91;79.51;97259.61;105783;1277;22601;-69
2022/04/06 03:01:41;;;;;;;4.60;4.20;;;;;;;6.92;79.68;97256.16;105730;1281;25955;-69
2022/04/06 03:04:10;;;;;;;5.30;4.60;;;;;;;6.94;79.77;97252.93;106066;1277;137385;-69
2022/04/06 03:06:37;;;;;;;7.30;4.80;;;;;;;6.93;79.92;97254.98;105875;1277;22544;-69
2022/04/06 03:09:18;;;;;;;5.30;4.50;;;;;;;6.92;79.65;97251.34;105706;1277;137288;-69
2022/04/06 03:11:45;;;;;;;5.30;4.60;;;;;;;6.93;79.74;97252.70;105975;1277;24263;-69
2022/04/06 03:14:25;;;;;;;5.10;4.60;;;;;;;6.95;79.87;97257.89;105815;1277;137867;-69
2022/04/06 03:16:52;;;;;;;5.20;4.70;;;;;;;6.97;80.00;97257.95;105888;1277;22653;-69
2022/04/06 03:19:33;;;;;;;5.00;4.50;;;;;;;6.99;79.62;97259.98;105890;1277;22622;-69
2022/04/06 03:22:02;;;;;;;5.50;4.60;;;;;;;7.00;79.80;97265.09;105773;1277;137434;-69
2022/04/06 03:24:44;;;;;;;6.30;5.30;;;;;;;7.00;79.80;97265.41;105974;1277;22534;-69
2022/04/06 03:27:11;;;;;;;6.10;4.50;;;;;;;7.01;79.74;97267.59;105703;1277;138988;-69
2022/04/06 03:29:40;;;;;;;4.80;4.30;;;;;;;7.03;79.72;97270.63;105948;1277;24322;-69
2022/04/06 03:32:08;;;;;;;6.00;5.40;;;;;;;7.05;79.80;97270.70;105839;1277;137940;-70
2022/04/06 03:34:49;;;;;;;6.10;5.10;;;;;;;7.07;79.99;97273.08;106027;1277;22605;-69
2022/04/06 03:37:16;;;;;;;5.90;5.30;;;;;;;7.08;79.84;97269.89;106027;1278;22724;-69
2022/04/06 03:39:57;;;;;;;6.80;4.80;;;;;;;7.08;79.88;97271.13;105754;1277;137265;-69
2022/04/06 03:42:37;;;;;;;5.40;4.70;;;;;;;7.09;79.54;97276.02;105797;1277;24248;-69
2022/04/06 03:45:18;;;;;;;4.60;4.10;;;;;;;7.11;79.63;97275.64;105740;1277;138115;-70
2022/04/06 03:47:45;;;;;;;5.20;4.70;;;;;;;7.13;79.75;97276.39;106069;1277;22530;-69
2022/04/06 03:50:26;;;;;;;5.80;4.70;;;;;;;7.14;79.66;97280.70;105820;1277;137469;-69
2022/04/06 03:53:07;;;;;;;6.40;5.40;;;;;;;7.16;79.78;97282.16;105885;1277;22708;-69
2022/04/06 03:55:48;;;;;;;6.40;5.60;;;;;;;7.18;79.73;97278.80;105879;1276;24258;-69
2022/04/06 03:58:29;;;;;;;7.90;4.90;;;;;;;7.23;80.02;97278.69;105720;1277;137473;-69
2022/04/06 04:00:56;;;;;;;6.40;5.50;;;;;;;7.26;79.74;97278.17;105944;1277;24244;-69
2022/04/06 04:03:37;;;;;;;6.40;5.70;;;;;;;7.28;79.86;97281.02;105995;1277;137305;-69
2022/04/06 04:06:04;;;;;;;6.70;6.00;;;;;;;7.29;79.94;97283.03;105934;1277;22702;-69
2022/04/06 04:08:31;;;;;;;7.30;6.00;;;;;;;7.30;79.53;97283.27;105849;1277;137644;-69
2022/04/06 04:10:58;;;;;;;7.10;5.90;;;;;;;7.32;79.48;97285.19;105846;1277;24240;-69
2022/04/06 04:13:39;;;;;;;6.30;4.90;;;;;;;7.36;79.47;97282.30;105934;1277;22574;-69
2022/04/06 04:16:06;;;;;;;9.00;6.10;;;;;;;7.38;79.81;97286.52;105815;1276;137745;-69
2022/04/06 04:18:47;;;;;;;7.90;6.60;;;;;;;7.43;79.36;97285.23;105907;1277;23304;-69
2022/04/06 04:24:13;;;;;;;5.60;5.10;;;;;;;7.48;79.48;97293.98;105927;1277;22532;-69
2022/04/06 04:26:41;;;;;;;6.40;5.30;;;;;;;7.51;79.28;97297.42;105784;1277;137971;-69
2022/04/06 04:29:21;;;;;;;6.90;5.80;;;;;;;7.56;79.21;97299.32;105843;1278;24201;-69
2022/04/06 04:32:03;;;;;;;7.40;5.40;;;;;;;7.59;78.77;97298.82;105838;1278;24240;-69
2022/04/06 04:34:44;;;;;;;6.30;5.60;;;;;;;7.62;78.72;97292.94;105761;1278;137713;-69
2022/04/06 04:37:25;;;;;;;6.90;5.60;;;;;;;7.65;78.52;97296.23;105912;1277;25481;-69
2022/04/06 04:40:07;;;;;;;6.60;5.60;;;;;;;7.68;78.64;97304.39;105885;1277;138348;-69
2022/04/06 04:42:48;;;;;;;5.30;4.80;;;;;;;7.72;78.31;97307.73;106080;1277;22646;-69
2022/04/06 04:45:15;;;;;;;9.10;5.90;;;;;;;7.74;78.31;97308.77;105821;1277;137452;-69
2022/04/06 04:47:57;;;;;;;6.60;5.50;;;;;;;7.75;78.19;97306.25;105832;1277;22549;-69
2022/04/06 04:50:24;;;;;;;7.90;6.50;;;;;;;7.76;78.41;97303.92;106067;1277;24266;-69
2022/04/06 04:52:51;;;;;;;7.50;6.10;;;;;;;7.78;78.16;97303.49;105945;1277;137775;-69
2022/04/06 04:55:18;;;;;;;6.50;5.80;;;;;;;7.81;78.10;97307.82;105860;1279;24269;-69
2022/04/06 04:57:46;;;;;;;6.50;5.50;;;;;;;7.84;78.00;97311.33;105707;1277;138321;-69
2022/04/06 05:00:26;;;;;;;8.80;6.40;;;;;;;7.86;77.84;97313.02;106000;1277;25384;-69
2022/04/06 05:03:08;;;;;;;9.00;6.60;;;;;;;7.88;78.07;97315.58;105887;1277;137437;-69
2022/04/06 05:05:53;;;;;;;8.30;6.10;;;;;;;7.90;78.00;97312.47;105905;1277;24309;-69
2022/04/06 05:08:34;;;;;;;7.50;6.00;;;;;;;7.93;77.74;97311.84;105994;1277;138141;-69
2022/04/06 05:11:15;;;;;;;7.00;5.80;;;;;;;7.98;77.66;97316.35;105834;1279;25347;-69
2022/04/06 05:13:56;;;;;;;8.40;6.80;;;;;;;8.04;77.57;97322.30;105842;1277;24226;-69
2022/04/06 05:16:37;;;;;;;7.20;6.10;;;;;;;8.08;77.77;97322.35;105829;1277;138009;-69
2022/04/06 05:19:18;;;;;;;7.60;6.20;;;;;;;8.10;77.49;97328.43;105938;1277;30658;-69
2022/04/06 05:22:01;;;;;;;6.90;6.00;;;;;;;8.12;77.42;97329.98;105732;1278;138152;-69
2022/04/06 05:24:42;;;;;;;7.90;6.10;;;;;;;8.16;77.49;97340.42;106016;1277;22559;-69
2022/04/06 05:27:09;;;;;;;6.30;5.70;;;;;;;8.19;77.32;97341.42;105725;1277;137768;-69
2022/04/06 05:29:36;;;;;;;9.50;5.50;;;;;;;8.23;77.10;97345.31;105931;1277;22596;-69
2022/04/06 05:32:17;;;;;;;6.60;5.80;;;;;;;8.26;77.16;97346.20;105918;1277;22636;-69
2022/04/06 05:34:44;;;;;;;8.00;6.20;;;;;;;8.28;77.32;97352.64;105870;1277;137807;-69
2022/04/06 05:37:11;;;;;;;6.80;5.30;;;;;;;8.29;77.05;97354.75;105809;1277;22576;-69
2022/04/06 05:39:52;;;;;;;7.70;5.50;;;;;;;8.30;76.93;97359.80;105714;1276;137982;-69
2022/04/06 05:42:19;;;;;;;9.20;5.10;;;;;;;8.33;76.93;97362.60;106029;1276;22562;-69
2022/04/06 05:45:00;;;;;;;9.20;6.40;;;;;;;8.35;76.98;97362.08;105692;1279;137465;-69
2022/04/06 05:47:27;;;;;;;7.90;5.70;;;;;;;8.36;76.91;97366.97;106018;1276;25311;-69
2022/04/06 05:49:54;;;;;;;7.40;5.80;;;;;;;8.38;77.02;97368.67;105988;1276;22608;-69
2022/04/06 05:52:35;;;;;;;10.20;6.90;;;;;;;8.38;77.05;97366.92;105876;1276;138116;-69
2022/04/06 05:55:17;;;;;;;7.50;6.20;;;;;;;8.38;76.79;97366.55;105930;1277;24256;-69
2022/04/06 05:57:57;;;;;;;7.00;5.50;;;;;;;8.38;76.69;97369.80;105792;1277;137768;-69
2022/04/06 06:00:25;;;;;;;9.20;6.90;;;;;;;8.39;76.32;97369.39;105820;1278;22539;-68
2022/04/06 06:03:05;;;;;;;9.50;7.00;;;;;;;8.41;76.66;97371.67;105742;1278;137532;-69
2022/04/06 06:05:32;;;;;;;7.60;5.40;;;;;;;8.41;76.66;97370.98;106039;1279;22609;-69
2022/04/06 06:07:59;;;;;;;6.90;5.20;;;;;;;8.40;76.48;97373.29;106039;1278;22540;-70
2022/04/06 06:10:27;;;;;;;5.90;5.20;;;;;;;8.38;76.34;97371.48;105976;1277;137309;-70
2022/04/06 06:13:08;;;;;;;6.40;5.10;;;;;;;8.38;76.15;97369.21;105979;1277;25203;-69
2022/04/06 06:15:49;;;;;;;10.00;5.80;;;;;;;8.44;76.25;97373.36;106049;1277;137903;-69
2022/04/06 06:18:16;;;;;;;9.00;5.60;;;;;;;8.50;76.29;97368.64;106151;1277;22547;-70
2022/04/06 06:20:43;;;;;;;8.10;6.10;;;;;;;8.59;76.15;97372.30;105985;1277;137586;-69
2022/04/06 06:23:10;;;;;;;10.80;6.70;;;;;;;8.66;76.01;97366.87;106235;1277;25236;-69
2022/04/06 06:25:38;;;;;;;11.60;6.90;;;;;;;8.74;75.96;97367.35;105995;1277;22763;-69
2022/04/06 06:28:06;;;;;;;7.80;5.40;;;;;;;8.81;76.08;97366.92;106030;1277;137801;-69
2022/04/06 06:30:46;;;;;;;9.40;5.80;;;;;;;8.88;75.83;97367.56;106051;1277;22717;-69
2022/04/06 06:33:14;;;;;;;8.90;6.80;;;;;;;8.98;75.82;97373.17;105951;1278;138061;-69
2022/04/06 06:35:55;;;;;;;7.60;5.60;;;;;;;9.09;75.62;97372.44;106020;1279;22551;-69
2022/04/06 06:38:36;;;;;;;4.80;4.00;;;;;;;9.20;75.26;97371.03;105644;1279;138019;-70
2022/04/06 06:41:17;;;;;;;5.50;4.40;;;;;;;9.30;74.84;97371.10;106044;1277;30583;-69
2022/04/06 06:43:48;;;;;;;7.70;5.50;;;;;;;9.39;74.82;97372.48;106208;1277;25371;-69
2022/04/06 06:46:17;;;;;;;5.60;4.60;;;;;;;9.48;74.70;97371.07;105958;1276;137435;-69
2022/04/06 06:48:45;;;;;;;6.40;4.90;;;;;;;9.57;74.10;97368.50;106078;1277;24482;-69
2022/04/06 06:51:29;;;;;;;6.50;5.20;;;;;;;9.65;73.92;97371.69;105924;1278;138079;-69
2022/04/06 06:54:10;;;;;;;6.10;4.60;;;;;;;9.73;73.50;97372.70;105842;1278;25252;-69
2022/04/06 06:56:50;;;;;;;6.90;5.20;;;;;;;9.80;73.39;97374.46;105925;1277;138476;-69
2022/04/06 06:59:31;;;;;;;6.40;4.60;;;;;;;9.86;73.04;97379.21;106067;1277;26499;-69
2022/04/06 07:01:58;;;;;;;6.10;4.60;;;;;;;9.88;72.59;97382.21;106058;1277;22541;-69
2022/04/06 07:04:39;;;;;;;5.40;4.80;;;;;;;9.88;72.31;97376.55;106044;1277;137262;-69
2022/04/06 07:07:06;;;;;;;5.70;4.50;;;;;;;9.86;72.16;97377.14;106078;1277;22605;-69
2022/04/06 07:09:47;;;;;;;6.20;4.30;;;;;;;9.86;72.17;97380.34;105870;1277;137923;-70
2022/04/06 07:12:28;;;;;;;7.30;4.70;;;;;;;9.84;72.18;97381.06;105896;1278;22612;-69
2022/04/06 07:15:09;;;;;;;5.40;4.60;;;;;;;9.83;72.27;97383.13;105905;1279;137601;-69
2022/04/06 07:17:55;;;;;;;4.70;4.20;;;;;;;9.81;72.09;97385.34;105960;1278;22538;-71
2022/04/06 07:20:23;;;;;;;5.40;4.40;;;;;;;9.79;72.18;97387.52;106082;1277;22551;-71
2022/04/06 07:22:51;;;;;;;4.60;3.80;;;;;;;9.77;72.14;97388.75;105880;1277;137215;-70
2022/04/06 07:25:19;;;;;;;6.10;4.40;;;;;;;9.75;72.12;97397.94;106148;1277;25455;-70
2022/04/06 07:27:46;;;;;;;12.00;4.70;;;;;;;9.76;72.32;97398.92;106121;1277;137638;-70
2022/04/06 07:30:27;;;;;;;5.30;4.60;;;;;;;9.76;72.33;97398.48;105737;1277;500514;-70
2022/04/06 07:32:55;;;;;;;7.70;3.70;;;;;;;9.77;72.21;97399.52;106019;1278;138182;-69
2022/04/06 07:35:23;;;;;;;6.50;4.80;;;;;;;9.76;71.96;97397.88;105844;1279;25295;-69
2022/04/06 07:37:51;;;;;;;6.40;4.50;;;;;;;9.75;71.99;97398.95;106038;1277;22535;-69
2022/04/06 07:40:32;;;;;;;6.20;4.30;;;;;;;9.74;72.13;97402.45;105904;1277;137794;-69
2022/04/06 07:42:59;;;;;;;6.80;4.50;;;;;;;9.75;72.44;97400.88;106319;1277;22763;-69
2022/04/06 07:45:26;;;;;;;8.10;4.10;;;;;;;9.78;72.51;97405.23;106004;1277;137621;-69
2022/04/06 07:48:07;;;;;;;6.20;4.30;;;;;;;9.82;72.29;97407.38;106109;1277;22557;-70
2022/04/06 07:50:34;;;;;;;6.30;4.20;;;;;;;9.85;72.09;97405.91;106076;1277;137655;-69
2022/04/06 07:53:17;;;;;;;7.00;4.00;;;;;;;9.90;72.30;97405.55;105988;1278;25362;-71
2022/04/06 07:55:46;;;;;;;5.90;3.80;;;;;;;9.97;72.40;97407.31;105942;1277;22625;-69
2022/04/06 07:58:13;;;;;;;5.10;3.80;;;;;;;10.05;71.87;97403.25;105777;1278;137315;-69
2022/04/06 08:00:55;;;;;;;4.60;3.80;;;;;;;10.11;72.23;97403.11;105937;1277;24235;-69
2022/04/06 08:03:38;;;;;;;7.00;4.20;;;;;;;10.17;71.74;97406.17;106106;1277;138088;-69
2022/04/06 08:06:19;;;;;;;4.20;3.70;;;;;;;10.19;71.56;97411.56;106089;1277;25516;-70
2022/04/06 08:09:02;;;;;;;7.70;3.70;;;;;;;10.19;71.26;97413.04;105986;1277;137860;-69
2022/04/06 08:11:29;;;;;;;;;;;;;;;10.18;71.43;97418.58;105976;1277;22522;-69
2022/04/06 08:13:56;;;;;;;4.40;3.30;;;;;;;10.15;71.75;97417.38;106066;1277;22650;-69
2022/04/06 08:16:37;;;;;;;5.20;3.80;;;;;;;10.09;72.12;97423.56;105977;1277;137383;-69
2022/04/06 08:19:18;;;;;;;4.30;3.40;;;;;;;10.09;72.63;97419.15;106117;1277;22753;-68
2022/04/06 08:21:45;;;;;;;5.20;3.70;;;;;;;10.10;72.57;97419.80;106032;1277;137812;-69
2022/04/06 08:24:12;;;;;;;3.80;3.20;;;;;;;10.11;72.48;97421.07;105888;1278;23155;-69
2022/04/06 08:26:39;;;;;;;6.20;3.90;;;;;;;10.12;72.55;97422.81;105783;1277;137980;-69
2022/04/06 08:29:06;;;;;;;5.00;3.80;;;;;;;10.13;72.41;97423.67;106025;1279;22658;-70
2022/04/06 08:31:48;;;;;;;5.80;3.70;;;;;;;10.16;72.78;97424.55;105885;1277;24293;-69
2022/04/06 08:34:16;;;;;;;4.80;3.80;;;;;;;10.18;72.79;97423.32;105949;1277;137462;-69
2022/04/06 08:36:44;;;;;;;4.60;3.60;;;;;;;10.20;72.32;97423.16;106194;1277;25242;-69
2022/04/06 08:39:12;;;;;;;5.00;3.70;;;;;;;10.23;71.70;97426.00;105945;1278;138805;-69
2022/04/06 08:41:56;;;;;;;3.90;3.40;;;;;;;10.28;71.75;97423.66;106085;1277;25391;-69
2022/04/06 08:44:23;;;;;;;3.80;3.30;;;;;;;10.35;71.55;97427.48;105943;1277;22522;-69
2022/04/06 08:47:06;;;;;;;4.00;3.30;;;;;;;10.42;72.02;97434.07;105894;1277;137271;-69
2022/04/06 08:49:48;;;;;;;4.10;3.70;;;;;;;10.45;72.07;97442.34;106120;1277;25343;-69
2022/04/06 08:52:17;;;;;;;4.30;3.70;;;;;;;10.46;72.19;97442.62;105980;1277;137959;-69
2022/04/06 08:54:45;;;;;;;5.00;4.10;;;;;;;10.51;72.20;97439.48;106091;1277;25396;-69
2022/04/06 08:57:13;;;;;;;5.50;4.00;;;;;;;10.62;73.05;97436.82;106045;1277;137835;-69
2022/04/06 08:59:54;;;;;;;5.10;3.90;;;;;;;10.70;72.86;97431.66;105901;1277;22564;-69
2022/04/06 09:02:23;;;;;;;4.70;4.00;;;;;;;10.75;72.95;97434.77;106175;1277;22848;-69
2022/04/06 09:04:52;;;;;;;5.00;3.80;;;;;;;10.80;72.71;97439.01;105921;1277;137736;-69
2022/04/06 09:07:33;;;;;;;3.70;3.30;;;;;;;10.91;72.59;97437.98;105979;1277;25287;-69
2022/04/06 09:10:14;;;;;;;3.90;3.50;;;;;;;11.00;72.33;97440.48;105820;1277;138681;-69
2022/04/06 09:13:15;;;;;;;4.50;3.30;;;;;;;11.03;71.44;97438.98;106007;1277;22656;-69
2022/04/06 09:15:44;;;;;;;4.20;2.90;;;;;;;10.98;70.93;97440.22;105777;1278;137512;-72
2022/04/06 09:18:40;;;;;;;5.00;3.40;;;;;;;10.92;71.04;97439.52;106438;1277;25318;-69
2022/04/06 09:21:09;;;;;;;8.60;3.30;;;;;;;10.85;70.99;97445.28;105872;1278;138412;-70
2022/04/06 09:23:50;;;;;;;3.90;3.30;;;;;;;10.76;71.44;97441.08;105978;1277;22547;-69
2022/04/06 09:26:32;;;;;;;4.00;3.50;;;;;;;10.73;71.34;97443.85;106265;1277;23008;-69
2022/04/06 09:29:13;;;;;;;4.10;3.70;;;;;;;10.74;71.34;97442.44;105868;1277;138063;-69
2022/04/06 09:31:40;;;;;;;6.30;3.80;;;;;;;10.79;71.59;97436.52;106245;1277;22546;-69
2022/04/06 09:34:23;;;;;;;4.80;3.90;;;;;;;10.85;71.56;97438.64;106008;1277;137617;-69
2022/04/06 09:36:56;;;;;;;5.90;3.60;;;;;;;10.90;71.73;97438.86;106243;1277;23219;-69
2022/04/06 09:39:43;;;;;;;4.20;3.80;;;;;;;10.93;71.23;97441.48;105894;1277;138355;-69
2022/04/06 09:42:24;;;;;;;4.70;3.90;;;;;;;10.93;71.30;97442.67;106434;1277;22582;-69
2022/04/06 09:48:10;;;;;;;5.40;4.10;;;;;;;10.89;71.35;97443.48;106394;1277;24248;-69
2022/04/06 09:50:38;;;;;;;5.30;4.00;;;;;;;10.90;71.72;97438.70;106420;1278;23103;-69
2022/04/06 09:53:24;;;;;;;7.30;3.70;;;;;;;10.92;71.41;97436.30;106442;1277;137510;-69
2022/04/06 09:56:05;;;;;;;5.50;4.10;;;;;;;10.91;71.27;97436.94;106568;1277;23315;-69
2022/04/06 09:58:47;;;;;;;4.80;4.10;;;;;;;10.89;71.18;97431.62;106453;1277;137844;-69
2022/04/06 10:01:16;;;;;;;5.60;4.00;;;;;;;10.91;71.70;97432.65;106216;1277;22554;-71
2022/04/06 10:03:52;;;;;;;4.60;3.70;;;;;;;10.97;71.57;97425.77;106230;1277;137842;-69
2022/04/06 10:06:19;;;;;;;3.70;3.20;;;;;;;11.04;71.49;97427.47;106352;1277;22579;-70
2022/04/06 10:08:47;;;;;;;4.10;3.40;;;;;;;11.12;71.35;97424.23;106038;1277;22570;-70
2022/04/06 10:11:17;;;;;;;4.00;3.50;;;;;;;11.19;70.64;97420.26;106567;1277;137240;-70
2022/04/06 10:14:00;;;;;;;5.20;3.50;;;;;;;11.28;70.71;97412.88;105914;1277;23921;-69
2022/04/06 10:16:42;;;;;;;4.40;3.50;;;;;;;11.37;69.67;97413.64;105688;1278;137588;-70
2022/04/06 10:19:13;;;;;;;3.20;2.90;;;;;;;11.43;69.49;97414.55;105695;1279;22775;-70
2022/04/06 10:21:55;;;;;;;4.10;3.70;;;;;;;11.51;69.41;97416.54;106070;1279;137687;-71
2022/04/06 10:25:00;;;;;;;3.80;3.40;;;;;;;11.59;68.71;97419.24;106259;1277;22575;-70
2022/04/06 10:27:35;;;;;;;4.10;3.40;;;;;;;11.64;68.79;97416.52;105956;1277;138243;-71
2022/04/06 10:30:17;;;;;;;5.10;3.80;;;;;;;11.69;68.94;97417.91;106272;1277;25310;-68
2022/04/06 10:32:58;;;;;;;5.80;4.20;;;;;;;11.70;68.40;97415.39;105902;1277;138481;-71
2022/04/06 10:35:39;;;;;;;4.00;3.40;;;;;;;11.65;67.96;97412.91;105866;1277;25550;-68
2022/04/06 10:38:06;;;;;;;4.50;3.40;;;;;;;11.59;68.27;97412.21;105719;1278;22566;-68
2022/04/06 10:40:46;;;;;;;4.60;3.60;;;;;;;11.53;68.65;97412.34;105701;1278;137585;-71
2022/04/06 10:43:40;;;;;;;4.30;3.40;;;;;;;11.48;68.57;97410.11;105882;1277;25315;-68
2022/04/06 10:46:09;;;;;;;4.80;3.80;;;;;;;11.41;68.74;97408.99;106019;1277;137445;-68
2022/04/06 10:49:15;;;;;;;6.50;4.10;;;;;;;11.34;69.00;97406.22;106060;1277;23363;-69
2022/04/06 10:51:48;;;;;;;4.20;3.00;;;;;;;11.27;69.33;97405.98;106018;1277;137607;-69
2022/04/06 10:54:15;;;;;;;4.80;3.40;;;;;;;11.22;68.75;97403.36;106122;1277;22837;-69
2022/04/06 10:56:55;;;;;;;6.00;3.90;;;;;;;11.19;67.66;97402.92;105891;1278;23109;-69
2022/04/06 10:59:36;;;;;;;3.50;2.80;;;;;;;11.21;67.79;97401.40;105921;1278;137341;-69
2022/04/06 11:02:19;;;;;;;4.00;2.80;;;;;;;11.25;67.73;97398.60;105949;1278;25392;-70
2022/04/06 11:05:02;;;;;;;3.90;3.00;;;;;;;11.29;67.04;97393.70;106099;1277;138313;-69
2022/04/06 11:10:35;;;;;;;5.80;3.10;;;;;;;11.52;67.10;97393.64;105833;1277;138095;-69
2022/04/06 11:13:25;;;;;;;5.00;3.30;;;;;;;11.66;67.29;97397.95;106068;1277;25041;-69
2022/04/06 11:15:52;;;;;;;3.70;2.70;;;;;;;11.78;66.58;97393.23;105954;1277;137897;-70
2022/04/06 11:18:49;;;;;;;4.70;2.90;;;;;;;11.89;66.30;97393.40;106070;1277;26648;-70
2022/04/06 11:21:18;;;;;;;3.60;2.40;;;;;;;12.03;65.82;97395.83;105773;1277;24275;-69
2022/04/06 11:23:45;;;;;;;3.50;2.80;;;;;;;12.21;65.54;97389.88;106325;1277;24412;-69
2022/04/06 11:26:26;;;;;;;3.50;2.80;;;;;;;12.55;65.02;97386.27;106079;1278;25524;-69
2022/04/06 11:29:07;;;;;;;3.00;2.50;;;;;;;12.83;63.98;97380.65;106008;1277;24305;-69
2022/04/06 11:31:55;;;;;;;3.90;2.50;;;;;;;13.12;63.18;97380.17;106146;1278;24435;-70
2022/04/06 11:34:33;;;;;;;2.40;2.10;;;;;;;13.32;61.17;97377.92;106060;1277;23476;-69
2022/04/06 11:37:02;;;;;;;2.40;2.00;;;;;;;13.32;60.75;97372.28;106284;1278;22635;-69
2022/04/06 11:39:43;;;;;;;3.40;2.70;;;;;;;13.49;60.57;97373.91;106260;1277;22564;-69
2022/04/06 11:42:21;;;;;;;3.20;2.40;;;;;;;13.67;59.92;97372.16;105886;1280;22553;-68
2022/04/06 11:44:48;;;;;;;5.80;2.70;;;;;;;13.88;60.16;97372.46;106228;1277;24376;-69
2022/04/06 11:47:16;;;;;;;2.00;1.80;;;;;;;14.07;60.16;97368.88;105888;1277;23389;-69
2022/04/06 11:49:44;;;;;;;2.00;1.80;;;;;;;14.11;58.38;97365.53;106295;1277;22674;-69
2022/04/06 11:52:11;;;;;;;2.80;2.00;;;;;;;14.11;58.32;97363.57;106201;1277;22532;-69
2022/04/06 11:54:54;;;;;;;2.10;1.90;;;;;;;14.08;57.77;97362.45;106334;1277;26696;-69
2022/04/06 11:57:36;;;;;;;2.90;2.20;;;;;;;14.03;57.67;97356.33;106052;1279;22544;-68
2022/04/06 12:00:11;;;;;;;3.10;2.50;;;;;;;14.01;57.68;97352.41;105966;1277;22538;-69
2022/04/06 12:02:57;;;;;;;2.70;1.80;;;;;;;14.03;57.76;97352.17;106163;1278;23947;-68
2022/04/06 12:05:25;;;;;;;3.30;2.20;;;;;;;14.11;56.50;97342.76;106190;1277;25317;-68
2022/04/06 12:08:06;;;;;;;5.60;2.60;;;;;;;14.25;56.60;97339.86;106054;1278;30724;-69
2022/04/06 12:10:58;;;;;;;4.60;1.90;;;;;;;14.39;55.62;97332.77;106046;1277;24305;-69
2022/04/06 12:13:44;;;;;;;4.10;2.10;;;;;;;14.45;55.10;97329.44;106046;1277;22556;-68
2022/04/06 12:16:11;;;;;;;3.70;2.10;;;;;;;14.56;55.28;97326.42;106298;1278;24218;-69
2022/04/06 12:18:42;;;;;;;4.50;1.80;;;;;;;14.64;54.20;97323.79;105967;1278;22629;-67
2022/04/06 12:21:29;;;;;;;2.60;2.10;;;;;;;14.67;53.82;97322.77;105859;1281;22621;-68
2022/04/06 12:23:58;;;;;;;2.50;2.30;;;;;;;14.71;53.58;97326.20;105946;1277;25118;-68